Time;durP1;ratioP1;P1;durP2;ratioP2;P2;SDS_P1;SDS_P2;PMS_P1;PMS_P2;Temp;Humidity;BMP_temperature;BMP_pressure;BME280_temperature;BME280_humidity;BME280_pressure;Samples;Min_cycle;Max_cycle;Signal;HPM_P1;HPM_P2
2021/01/11 00:02:13;;;;;;;13.63;7.40;;;;;;;2.79;82.35;93065.06;5112976;28;20515;-45
2021/01/11 00:04:39;;;;;;;8.13;4.85;;;;;;;2.74;82.76;93068.56;5112881;27;20036;-46
2021/01/11 00:07:05;;;;;;;9.20;2.88;;;;;;;2.51;82.34;93048.16;5112748;28;20484;-44
2021/01/11 00:09:30;;;;;;;3.65;2.90;;;;;;;2.78;82.81;93069.75;5111438;28;20038;-46
2021/01/11 00:11:58;;;;;;;3.95;2.60;;;;;;;2.81;82.09;93049.66;5112777;28;20031;-47
2021/01/11 00:14:23;;;;;;;5.13;3.25;;;;;;;2.73;82.27;93070.53;5112627;28;20028;-49
2021/01/11 00:16:49;;;;;;;2.55;1.67;;;;;;;2.80;81.61;93061.81;5112628;28;20405;-46
2021/01/11 00:19:14;;;;;;;3.03;2.33;;;;;;;2.85;81.47;93063.03;5112434;27;20030;-48
2021/01/11 00:21:40;;;;;;;3.50;2.47;;;;;;;2.77;82.48;93071.00;5112398;28;20025;-45
2021/01/11 00:24:05;;;;;;;11.32;2.65;;;;;;;2.76;82.78;93061.34;5112473;28;20028;-48
2021/01/11 00:26:31;;;;;;;2.97;2.25;;;;;;;2.64;82.39;93051.75;5112349;28;20027;-47
2021/01/11 00:28:56;;;;;;;2.72;2.13;;;;;;;2.69;82.59;93042.06;5112030;28;20032;-50
2021/01/11 00:31:24;;;;;;;3.22;2.17;;;;;;;2.74;82.56;93027.66;5111769;28;20034;-48
2021/01/11 00:33:50;;;;;;;6.80;3.13;;;;;;;2.70;82.51;93016.31;5112020;28;20055;-51
2021/01/11 00:36:15;;;;;;;5.63;3.00;;;;;;;2.76;82.55;93028.66;5112065;28;20062;-45
2021/01/11 00:38:41;;;;;;;6.53;3.90;;;;;;;2.85;81.71;93022.13;5112042;28;20027;-47
2021/01/11 00:41:06;;;;;;;14.13;7.88;;;;;;;2.72;82.67;93017.28;5112105;28;20156;-46
2021/01/11 00:43:31;;;;;;;4.03;2.80;;;;;;;2.55;83.75;92997.59;5112087;28;20029;-46
2021/01/11 00:45:57;;;;;;;8.05;3.38;;;;;;;2.66;83.76;93024.03;5111830;28;20043;-50
2021/01/11 00:48:22;;;;;;;24.67;10.65;;;;;;;2.67;83.70;93020.78;5111962;28;20618;-47
2021/01/11 00:50:47;;;;;;;15.73;7.90;;;;;;;2.61;84.41;93035.69;5111786;28;20034;-47
2021/01/11 00:53:13;;;;;;;8.55;5.18;;;;;;;2.64;84.39;93032.69;5111967;28;20024;-47
2021/01/11 00:55:38;;;;;;;28.35;13.10;;;;;;;2.74;84.04;93042.03;5111690;28;20119;-47
2021/01/11 00:58:04;;;;;;;31.38;15.93;;;;;;;2.85;83.29;93039.22;5111690;28;20556;-47
2021/01/11 01:00:29;;;;;;;19.45;11.00;;;;;;;2.85;82.76;93031.03;5111895;28;20035;-48
2021/01/11 01:02:55;;;;;;;21.65;9.70;;;;;;;2.94;82.63;93030.72;5111631;28;20106;-45
2021/01/11 01:05:20;;;;;;;4.50;3.50;;;;;;;2.76;83.68;93017.00;5111482;27;20070;-47
2021/01/11 01:07:46;;;;;;;5.25;3.15;;;;;;;2.67;84.36;93004.44;5111670;28;20051;-47
2021/01/11 01:10:11;;;;;;;4.03;1.88;;;;;;;2.59;83.87;92980.97;5111754;28;20020;-48
2021/01/11 01:12:37;;;;;;;3.70;2.20;;;;;;;2.70;84.07;92987.06;5111579;28;20035;-48
2021/01/11 01:15:04;;;;;;;3.10;1.83;;;;;;;2.69;84.17;92985.56;5111537;28;20035;-50
2021/01/11 01:17:30;;;;;;;3.30;1.65;;;;;;;2.74;84.54;92976.63;5111543;28;20023;-48
2021/01/11 01:19:55;;;;;;;2.95;1.15;;;;;;;2.85;83.93;92957.44;5111326;28;20404;-48
2021/01/11 01:22:21;;;;;;;1.23;0.95;;;;;;;2.74;84.62;92960.28;5111262;28;20035;-47
2021/01/11 01:24:46;;;;;;;3.03;1.45;;;;;;;2.71;84.76;92969.44;5111314;28;20031;-46
2021/01/11 01:27:11;;;;;;;2.00;1.50;;;;;;;2.68;84.77;92995.03;5111361;28;20106;-50
2021/01/11 01:29:37;;;;;;;2.58;1.80;;;;;;;2.72;84.71;93000.19;5111281;28;20027;-48
2021/01/11 01:32:02;;;;;;;2.50;1.80;;;;;;;2.75;84.48;92977.38;5111282;28;20085;-47
2021/01/11 01:34:28;;;;;;;1.85;1.30;;;;;;;2.73;84.75;92968.97;5111179;28;20027;-49
2021/01/11 01:36:55;;;;;;;1.60;1.35;;;;;;;2.69;84.78;92954.84;5111127;28;20462;-46
2021/01/11 01:39:21;;;;;;;2.17;1.50;;;;;;;2.69;84.55;92952.13;5111209;28;20035;-48
2021/01/11 01:41:46;;;;;;;2.03;1.13;;;;;;;2.74;84.82;92952.09;5110959;28;20031;-48
2021/01/11 01:44:12;;;;;;;5.82;1.85;;;;;;;2.68;85.19;92954.13;5111150;28;20039;-47
2021/01/11 01:46:37;;;;;;;1.90;1.80;;;;;;;2.73;84.93;92955.34;5110993;28;20023;-49
2021/01/11 01:49:03;;;;;;;1.40;1.30;;;;;;;2.74;84.94;92959.53;5111145;28;20035;-48
2021/01/11 01:51:28;;;;;;;2.13;1.50;;;;;;;2.62;85.62;92964.31;5109775;28;20523;-46
2021/01/11 01:53:55;;;;;;;2.42;1.45;;;;;;;2.68;85.02;92973.22;5110989;28;20416;-47
2021/01/11 01:56:20;;;;;;;2.25;1.75;;;;;;;2.61;86.01;92979.22;5110793;28;20442;-50
2021/01/11 01:58:47;;;;;;;1.40;1.30;;;;;;;2.29;86.77;92967.34;5110910;28;20091;-46
2021/01/11 02:01:13;;;;;;;1.27;1.17;;;;;;;2.43;87.36;92998.94;5110932;28;20034;-47
2021/01/11 02:03:39;;;;;;;2.35;1.67;;;;;;;2.42;87.18;92994.00;5109797;28;20106;-48
2021/01/11 02:06:04;;;;;;;1.67;1.50;;;;;;;2.58;86.83;93023.81;5110739;28;20180;-45
2021/01/11 02:08:41;;;;;;;1.95;1.42;;;;;;;2.54;86.46;93020.63;5110964;28;20035;-46
2021/01/11 02:11:38;;;;;;;1.48;1.38;;;;;;;2.62;86.27;92996.31;5110950;28;20035;-48
2021/01/11 02:14:29;;;;;;;1.27;1.05;;;;;;;2.50;86.29;92973.84;5110806;28;20027;-48
2021/01/11 02:17:45;;;;;;;1.83;1.30;;;;;;;2.64;85.72;92997.25;5110632;28;20023;-48
2021/01/11 02:20:41;;;;;;;3.25;2.10;;;;;;;2.64;85.47;93010.88;5092869;28;20062;-46
2021/01/11 02:23:59;;;;;;;5.15;1.95;;;;;;;2.70;85.37;93019.03;5110638;28;20472;-46
2021/01/11 02:26:42;;;;;;;3.07;2.03;;;;;;;2.76;84.99;93039.53;5082624;28;20043;-44
2021/01/11 02:29:28;;;;;;;6.55;2.58;;;;;;;2.62;84.75;93050.81;5109590;28;20028;-50
2021/01/11 02:31:55;;;;;;;2.05;1.45;;;;;;;2.59;85.13;93068.91;5110681;28;20031;-47
2021/01/11 02:34:21;;;;;;;2.08;1.63;;;;;;;2.50;85.35;93077.41;5109390;28;20050;-48
2021/01/11 02:36:46;;;;;;;2.88;1.50;;;;;;;2.37;85.54;93090.09;5110511;28;20020;-47
2021/01/11 02:39:12;;;;;;;2.17;1.67;;;;;;;2.42;86.39;93102.97;5109418;28;20488;-48
2021/01/11 02:41:37;;;;;;;2.67;1.60;;;;;;;2.46;86.41;93092.53;5110576;28;20065;-44
2021/01/11 02:44:03;;;;;;;2.35;1.63;;;;;;;2.53;86.43;93081.09;5110811;28;20084;-47
2021/01/11 02:46:28;;;;;;;2.83;1.58;;;;;;;2.70;85.44;93085.19;5110455;28;20027;-46
2021/01/11 02:48:56;;;;;;;3.60;1.27;;;;;;;2.66;84.62;93079.28;5110417;28;20027;-45
2021/01/11 02:51:23;;;;;;;2.20;1.70;;;;;;;2.55;85.78;93087.53;5110622;28;20461;-46
2021/01/11 02:54:18;;;;;;;2.70;2.10;;;;;;;2.58;85.13;93099.41;5111278;28;20035;-47
2021/01/11 02:56:56;;;;;;;4.55;2.60;;;;;;;2.59;85.27;93093.44;5114049;28;20047;-45
2021/01/11 02:59:32;;;;;;;4.80;3.00;;;;;;;2.72;85.21;93098.31;5112819;28;20148;-47
2021/01/11 03:02:02;;;;;;;3.95;2.55;;;;;;;2.78;84.67;93088.84;5113164;28;20699;-48
2021/01/11 03:04:28;;;;;;;6.72;2.92;;;;;;;2.59;85.14;93096.16;5114077;28;20032;-47
2021/01/11 03:06:55;;;;;;;2.83;1.88;;;;;;;2.68;85.07;93101.31;5112657;28;20020;-45
2021/01/11 03:09:20;;;;;;;3.65;2.47;;;;;;;2.68;84.84;93127.81;5113930;28;20039;-45
2021/01/11 03:11:46;;;;;;;5.93;2.45;;;;;;;2.64;84.33;93146.44;5113794;28;20027;-47
2021/01/11 03:14:11;;;;;;;4.72;2.72;;;;;;;2.64;84.12;93155.31;5113831;28;20020;-46
2021/01/11 03:16:37;;;;;;;2.85;2.08;;;;;;;2.70;83.77;93161.50;5113814;28;20020;-45
2021/01/11 03:19:02;;;;;;;5.45;2.35;;;;;;;2.60;83.15;93140.53;5113734;28;20506;-48
2021/01/11 03:21:27;;;;;;;1.70;1.33;;;;;;;2.57;83.54;93164.06;5113662;28;20024;-46
2021/01/11 03:23:53;;;;;;;2.85;2.22;;;;;;;2.33;83.89;93147.59;5113815;28;20028;-46
2021/01/11 03:26:24;;;;;;;3.40;2.40;;;;;;;2.25;84.87;93141.19;5113525;28;20027;-47
2021/01/11 03:28:50;;;;;;;3.95;2.90;;;;;;;2.36;84.60;93113.16;5113634;28;20055;-47
2021/01/11 03:31:16;;;;;;;4.07;2.30;;;;;;;2.23;84.57;93087.22;5113458;28;20492;-47
2021/01/11 03:33:42;;;;;;;9.52;2.22;;;;;;;2.02;85.93;93056.13;5113576;28;20032;-45
2021/01/11 03:36:07;;;;;;;2.33;1.75;;;;;;;2.13;85.71;93041.72;5113426;28;20034;-46
2021/01/11 03:38:32;;;;;;;2.95;1.83;;;;;;;2.28;85.16;93040.16;5113586;28;20035;-45
2021/01/11 03:41:03;;;;;;;3.00;2.00;;;;;;;2.41;84.67;93031.38;5113240;28;20031;-46
2021/01/11 03:43:29;;;;;;;1.88;1.58;;;;;;;2.38;84.74;93028.94;5113325;28;20062;-49
2021/01/11 03:45:55;;;;;;;2.88;1.80;;;;;;;2.42;84.72;93032.13;5113217;28;20058;-47
2021/01/11 03:48:21;;;;;;;7.80;4.40;;;;;;;2.30;85.54;93017.84;5113123;28;20488;-47
2021/01/11 03:50:47;;;;;;;4.30;3.33;;;;;;;2.24;85.83;93023.34;5113220;27;20473;-50
2021/01/11 03:53:12;;;;;;;5.72;2.90;;;;;;;2.19;86.63;93028.81;5113004;28;20023;-46
2021/01/11 03:55:41;;;;;;;5.57;3.10;;;;;;;2.27;86.42;93027.75;5112699;28;20171;-46
2021/01/11 03:58:09;;;;;;;10.70;5.47;;;;;;;2.27;86.70;93013.41;5112834;28;20045;-48
2021/01/11 04:00:35;;;;;;;7.47;4.15;;;;;;;2.24;85.85;93011.69;5111579;28;20034;-45
2021/01/11 04:03:02;;;;;;;18.42;9.93;;;;;;;2.10;86.32;93016.22;5112901;28;20024;-46
2021/01/11 04:05:28;;;;;;;14.90;7.60;;;;;;;1.98;86.80;93001.22;5112758;28;20035;-47
2021/01/11 04:07:53;;;;;;;10.70;6.95;;;;;;;2.15;86.85;93012.00;5112796;28;20765;-46
2021/01/11 04:10:19;;;;;;;4.00;3.35;;;;;;;2.25;85.88;93011.19;5112738;28;20027;-45
2021/01/11 04:12:44;;;;;;;6.07;3.58;;;;;;;2.25;85.39;93018.63;5112757;28;20059;-44
2021/01/11 04:15:10;;;;;;;4.25;2.92;;;;;;;2.23;85.88;93027.28;5112666;28;20397;-49
2021/01/11 04:17:35;;;;;;;5.90;3.53;;;;;;;2.20;85.99;93006.53;5112594;28;20605;-47
2021/01/11 04:20:01;;;;;;;5.70;2.80;;;;;;;2.34;85.95;93012.13;5112531;28;20411;-49
2021/01/11 04:22:26;;;;;;;6.20;3.13;;;;;;;2.44;85.84;93014.03;5112438;28;20019;-49
2021/01/11 04:24:52;;;;;;;14.70;6.88;;;;;;;2.45;85.54;93050.91;5112349;28;20088;-45
2021/01/11 04:27:20;;;;;;;15.82;8.13;;;;;;;2.46;85.67;93076.19;5112492;28;20106;-46
2021/01/11 04:29:46;;;;;;;11.07;6.85;;;;;;;2.49;85.28;93084.06;5112268;28;20026;-46
2021/01/11 04:32:11;;;;;;;14.75;7.82;;;;;;;2.42;85.37;93114.59;5112276;28;20028;-46
2021/01/11 04:34:36;;;;;;;19.55;11.02;;;;;;;2.43;85.63;93116.06;5112339;28;20035;-48
2021/01/11 04:37:02;;;;;;;22.15;10.65;;;;;;;2.48;85.26;93141.81;5112135;28;20023;-48
2021/01/11 04:39:27;;;;;;;10.63;6.03;;;;;;;2.48;85.18;93156.19;5112123;28;20526;-51
2021/01/11 04:41:53;;;;;;;10.68;6.57;;;;;;;2.68;85.07;93147.66;5112138;28;20055;-49
2021/01/11 04:44:20;;;;;;;8.63;6.18;;;;;;;2.65;84.26;93139.72;5110892;28;20421;-47
2021/01/11 04:46:48;;;;;;;9.45;4.97;;;;;;;2.79;83.60;93122.31;5111762;28;20035;-46
2021/01/11 04:49:13;;;;;;;2.55;2.05;;;;;;;2.48;84.27;93109.13;5110816;28;20030;-49
2021/01/11 04:51:40;;;;;;;5.10;3.20;;;;;;;2.28;85.27;93107.50;5110910;28;20470;-46
2021/01/11 04:54:07;;;;;;;4.50;3.08;;;;;;;2.35;85.25;93115.13;5111909;28;20539;-49
2021/01/11 04:56:38;;;;;;;1.95;1.33;;;;;;;2.41;84.99;93126.00;5111547;28;20545;-48
2021/01/11 04:59:07;;;;;;;2.60;2.28;;;;;;;2.44;85.37;93123.00;5111806;28;20033;-46
2021/01/11 05:01:32;;;;;;;2.58;2.20;;;;;;;2.49;84.84;93075.19;5112045;28;20027;-46
2021/01/11 05:04:02;;;;;;;3.00;2.00;;;;;;;2.28;85.88;92957.69;5110619;28;20034;-48
2021/01/11 05:06:28;;;;;;;1.40;1.10;;;;;;;2.32;86.04;92939.06;5111681;27;20107;-48
2021/01/11 05:09:05;;;;;;;3.40;2.40;;;;;;;2.32;86.53;92908.41;5111681;28;20683;-45
2021/01/11 05:11:31;;;;;;;6.10;4.13;;;;;;;2.33;86.19;92926.94;5110439;28;20081;-47
2021/01/11 05:13:56;;;;;;;4.22;2.88;;;;;;;2.34;86.26;92949.50;5111416;28;20484;-47
2021/01/11 05:16:22;;;;;;;10.57;2.95;;;;;;;2.29;86.73;92957.19;5111133;28;20019;-51
2021/01/11 05:18:50;;;;;;;0.70;0.70;;;;;;;2.30;86.72;92955.94;5111365;28;20042;-48
2021/01/11 05:21:39;;;;;;;0.88;0.70;;;;;;;2.37;86.58;92948.44;5111547;28;20034;-49
2021/01/11 05:24:27;;;;;;;1.98;1.02;;;;;;;2.35;86.90;92948.97;5111417;28;20058;-47
2021/01/11 05:26:53;;;;;;;22.77;12.13;;;;;;;2.40;86.63;92961.81;5111525;28;20061;-48
2021/01/11 05:29:18;;;;;;;24.20;12.93;;;;;;;2.43;86.54;92984.56;5111293;28;20061;-46
2021/01/11 05:31:58;;;;;;;10.55;6.20;;;;;;;2.39;86.96;93003.91;5111255;28;20508;-46
2021/01/11 05:34:24;;;;;;;9.23;5.50;;;;;;;2.46;86.63;93044.25;5111302;28;20034;-47
2021/01/11 05:36:50;;;;;;;5.00;3.58;;;;;;;2.55;86.88;93024.09;5111190;28;20031;-49
2021/01/11 05:39:15;;;;;;;11.40;6.78;;;;;;;2.51;86.76;93001.84;5111230;28;20060;-49
2021/01/11 05:41:42;;;;;;;19.15;10.85;;;;;;;2.41;87.49;92990.53;5111105;28;20023;-49
2021/01/11 05:44:12;;;;;;;5.68;3.47;;;;;;;2.37;86.97;92990.06;5111148;28;20028;-45
2021/01/11 05:46:38;;;;;;;7.07;3.70;;;;;;;2.42;88.03;92992.00;5111195;28;20107;-49
2021/01/11 05:49:08;;;;;;;4.68;2.88;;;;;;;2.30;87.95;92996.06;5111099;28;20035;-47
2021/01/11 05:51:35;;;;;;;3.55;2.22;;;;;;;2.35;88.34;92987.09;5111002;28;20027;-48
2021/01/11 05:54:00;;;;;;;1.83;1.40;;;;;;;2.32;88.26;92984.66;5111268;28;20042;-47
2021/01/11 05:56:27;;;;;;;6.53;3.53;;;;;;;2.43;88.31;92998.19;5110907;28;20047;-48
2021/01/11 05:59:08;;;;;;;7.65;5.18;;;;;;;2.49;87.94;92990.72;5110937;28;20553;-50
2021/01/11 06:01:36;;;;;;;7.78;5.20;;;;;;;2.59;87.71;92986.41;5110956;28;20036;-48
2021/01/11 06:04:02;;;;;;;17.58;10.20;;;;;;;2.56;87.43;92988.16;5110798;28;20131;-49
2021/01/11 06:06:28;;;;;;;31.38;15.38;;;;;;;2.53;87.51;92989.19;5110808;28;20036;-48
2021/01/11 06:08:54;;;;;;;24.98;12.73;;;;;;;2.63;86.48;92998.53;5110917;28;20556;-49
2021/01/11 06:11:21;;;;;;;37.28;16.17;;;;;;;2.69;86.79;92987.56;5110966;28;20034;-48
2021/01/11 06:13:51;;;;;;;43.97;20.92;;;;;;;2.74;86.92;93006.59;5110855;28;20381;-50
2021/01/11 06:16:18;;;;;;;15.40;8.35;;;;;;;2.74;86.84;93001.16;5110909;28;20104;-46
2021/01/11 06:18:50;;;;;;;11.52;6.03;;;;;;;2.79;86.76;93013.25;5110887;28;20030;-48
2021/01/11 06:21:17;;;;;;;13.55;6.57;;;;;;;2.76;86.37;92998.66;5110751;28;20032;-50
2021/01/11 06:23:43;;;;;;;16.50;8.23;;;;;;;2.79;86.45;93000.38;5110675;28;20112;-47
2021/01/11 06:26:26;;;;;;;15.52;7.75;;;;;;;2.80;87.10;93020.19;5110541;28;20039;-44
2021/01/11 06:28:52;;;;;;;11.90;6.00;;;;;;;2.78;86.66;93017.22;5112997;28;20031;-47
2021/01/11 06:31:18;;;;;;;8.85;4.45;;;;;;;2.79;87.22;93029.63;5114803;28;20122;-46
2021/01/11 06:33:44;;;;;;;8.23;4.22;;;;;;;2.77;87.63;93040.28;5114717;28;20558;-48
2021/01/11 06:36:32;;;;;;;3.15;2.40;;;;;;;2.85;87.69;93065.75;5114666;28;20041;-48
2021/01/11 06:39:09;;;;;;;4.95;3.00;;;;;;;2.80;87.08;93061.81;5114722;28;20410;-46
2021/01/11 06:41:35;;;;;;;3.45;1.90;;;;;;;2.83;87.45;93085.34;5114683;28;20565;-46
2021/01/11 06:44:06;;;;;;;4.00;2.90;;;;;;;2.82;87.72;93083.84;5114347;27;20110;-49
2021/01/11 06:46:31;;;;;;;1.67;1.50;;;;;;;2.91;87.74;93074.59;5114356;28;20023;-46
2021/01/11 06:49:01;;;;;;;20.67;10.82;;;;;;;2.97;87.98;93086.19;5114370;28;20055;-47
2021/01/11 06:51:41;;;;;;;14.60;7.28;;;;;;;3.15;87.14;93079.38;5114275;28;20388;-46
2021/01/11 06:54:12;;;;;;;25.92;11.80;;;;;;;3.19;86.44;93058.75;5114206;28;20024;-50
2021/01/11 06:56:38;;;;;;;28.05;13.13;;;;;;;3.22;86.47;93068.63;5114006;28;20043;-46
2021/01/11 06:59:16;;;;;;;86.70;10.80;;;;;;;3.26;85.83;93051.97;5114206;28;20035;-50
2021/01/11 07:01:42;;;;;;;12.48;6.10;;;;;;;3.19;86.18;93058.00;5114119;28;20035;-44
2021/01/11 07:04:08;;;;;;;5.20;3.38;;;;;;;3.28;86.32;93057.66;5113952;28;20069;-46
2021/01/11 07:06:38;;;;;;;2.97;2.00;;;;;;;3.27;85.31;93056.91;5114240;28;20032;-49
2021/01/11 07:09:11;;;;;;;1.90;1.45;;;;;;;3.18;85.27;93032.72;5113939;28;20524;-48
2021/01/11 07:11:49;;;;;;;4.15;2.63;;;;;;;3.55;84.28;93054.63;5114026;28;20062;-47
2021/01/11 07:14:22;;;;;;;6.38;3.50;;;;;;;3.60;83.54;93036.72;5113786;28;20062;-46
2021/01/11 07:16:52;;;;;;;3.33;2.78;;;;;;;3.59;83.23;93032.53;5112921;28;20046;-50
2021/01/11 07:19:23;;;;;;;4.85;2.90;;;;;;;3.72;83.78;93044.28;5113785;28;20027;-46
2021/01/11 07:21:49;;;;;;;73.38;27.98;;;;;;;3.40;83.76;93009.94;5113575;28;20036;-47
2021/01/11 07:35:38;;;;;;;13.27;9.07;;;;;;;4.23;80.69;93088.84;5128943;27;20221;-45
2021/01/11 07:38:03;;;;;;;9.70;6.35;;;;;;;4.31;80.06;93089.72;5108385;28;20102;-48
2021/01/11 07:40:29;;;;;;;5.70;4.13;;;;;;;4.26;79.84;93096.03;5108348;28;20411;-48
2021/01/11 07:42:54;;;;;;;5.60;4.07;;;;;;;4.18;78.70;93091.66;5108098;28;20384;-47
2021/01/11 07:45:20;;;;;;;4.30;3.15;;;;;;;4.03;78.95;93086.59;5108334;28;20030;-44
2021/01/11 07:47:51;;;;;;;6.10;4.18;;;;;;;4.12;79.34;93096.44;5108234;28;20518;-48
2021/01/11 07:50:16;;;;;;;11.68;7.05;;;;;;;4.23;79.22;93113.44;5108029;28;20024;-50
2021/01/11 07:52:43;;;;;;;10.50;6.85;;;;;;;4.21;78.32;93110.47;5108022;28;20069;-47
2021/01/11 07:55:09;;;;;;;12.45;8.27;;;;;;;4.30;78.22;93125.78;5108047;28;20041;-49
2021/01/11 07:57:34;;;;;;;4.70;3.10;;;;;;;4.10;77.90;93140.66;5108071;28;20159;-44
2021/01/11 08:00:08;;;;;;;10.98;7.68;;;;;;;4.00;78.01;93125.16;5107986;28;20635;-48
2021/01/11 08:02:33;;;;;;;15.18;7.55;;;;;;;3.77;78.02;93122.66;5107838;28;20588;-46
2021/01/11 08:04:59;;;;;;;7.90;3.80;;;;;;;3.62;78.50;93137.94;5107871;28;20019;-44
2021/01/11 08:07:32;;;;;;;7.25;4.00;;;;;;;3.64;79.52;93170.94;5107730;28;20024;-46
2021/01/11 08:09:58;;;;;;;8.40;4.40;;;;;;;3.17;79.52;93129.44;5107651;28;20028;-47
2021/01/11 08:12:28;;;;;;;3.63;2.30;;;;;;;3.23;80.79;93123.94;5107741;28;20031;-44
2021/01/11 08:15:09;;;;;;;12.63;6.05;;;;;;;3.48;80.63;93137.09;5107561;28;20023;-45
2021/01/11 08:17:41;;;;;;;10.20;4.90;;;;;;;3.52;79.48;93150.47;5107800;28;20020;-45
2021/01/11 08:20:07;;;;;;;7.25;4.47;;;;;;;3.55;78.60;93135.81;5107646;28;20059;-47
2021/01/11 08:22:32;;;;;;;9.75;4.95;;;;;;;3.48;78.67;93148.03;5107384;28;20049;-45
2021/01/11 08:24:59;;;;;;;6.28;3.15;;;;;;;3.45;78.24;93140.09;5107316;28;20024;-45
2021/01/11 08:27:43;;;;;;;1.77;1.50;;;;;;;3.40;78.00;93151.81;5106108;28;20024;-45
2021/01/11 08:30:11;;;;;;;8.20;4.32;;;;;;;3.41;78.76;93156.03;5106340;28;20019;-46
2021/01/11 08:32:37;;;;;;;3.15;1.60;;;;;;;3.47;78.76;93173.06;5107205;28;20043;-46
2021/01/11 08:35:10;;;;;;;9.65;3.10;;;;;;;3.39;79.06;93185.81;5101573;28;20044;-46
2021/01/11 08:37:36;;;;;;;7.68;3.70;;;;;;;3.42;79.27;93195.72;5093663;28;20020;-46
2021/01/11 08:40:10;;;;;;;6.78;3.75;;;;;;;3.47;78.63;93194.91;5093554;28;20030;-45
2021/01/11 08:42:37;;;;;;;3.08;2.35;;;;;;;3.41;78.30;93222.25;5093388;28;20016;-48
2021/01/11 08:45:27;;;;;;;3.10;2.63;;;;;;;3.24;78.69;93226.34;5093430;28;20488;-45
2021/01/11 08:48:14;;;;;;;12.20;5.10;;;;;;;3.08;78.04;93211.56;5093452;28;20103;-45
2021/01/11 08:50:40;;;;;;;7.55;4.82;;;;;;;2.84;78.33;93230.56;5093236;28;20028;-49
2021/01/11 08:53:27;;;;;;;12.20;6.72;;;;;;;2.81;79.14;93240.50;5093367;28;20019;-47
2021/01/11 08:56:08;;;;;;;4.28;3.10;;;;;;;2.68;79.37;93273.03;5093246;28;20031;-45
2021/01/11 08:58:38;;;;;;;3.53;2.67;;;;;;;2.63;78.41;93264.84;5093228;28;20515;-45
2021/01/11 09:01:17;;;;;;;4.38;3.08;;;;;;;2.58;79.02;93274.53;5093271;28;20024;-45
2021/01/11 09:03:55;;;;;;;3.05;2.22;;;;;;;2.52;78.55;93290.16;5091769;28;20016;-46
2021/01/11 09:06:41;;;;;;;3.63;2.53;;;;;;;2.44;79.05;93286.50;5093023;28;20522;-44
2021/01/11 09:09:12;;;;;;;2.60;2.00;;;;;;;2.28;78.91;93296.19;5093128;28;20106;-46
2021/01/11 09:11:39;;;;;;;4.30;2.80;;;;;;;2.20;78.95;93272.69;5093213;28;20020;-44
2021/01/11 09:14:06;;;;;;;4.53;2.80;;;;;;;2.33;78.78;93259.28;5093076;28;20024;-48
2021/01/11 09:16:32;;;;;;;3.83;2.80;;;;;;;2.37;78.09;93248.13;5092955;28;20036;-44
2021/01/11 09:19:14;;;;;;;3.63;2.47;;;;;;;2.40;78.47;93236.97;5092929;28;20016;-45
2021/01/11 09:21:40;;;;;;;2.90;2.10;;;;;;;2.41;79.17;93243.88;5092754;28;20089;-44
2021/01/11 09:24:10;;;;;;;4.15;2.90;;;;;;;2.72;79.34;93235.34;5092759;28;20024;-48
2021/01/11 09:26:36;;;;;;;2.92;1.92;;;;;;;3.06;78.18;93227.69;5092595;28;20024;-44
2021/01/11 09:29:03;;;;;;;4.07;2.97;;;;;;;3.29;77.39;93211.94;5092696;28;20035;-47
2021/01/11 09:31:28;;;;;;;3.55;2.80;;;;;;;3.49;75.96;93200.59;5091087;28;20020;-45
2021/01/11 09:33:54;;;;;;;2.10;1.90;;;;;;;3.63;76.18;93200.25;5090893;28;20126;-46
2021/01/11 09:36:20;;;;;;;5.35;2.38;;;;;;;3.87;75.78;93191.34;5092129;28;20054;-46
2021/01/11 09:38:49;;;;;;;3.50;1.90;;;;;;;4.04;75.66;93210.28;5092149;28;20024;-48
2021/01/11 09:41:15;;;;;;;5.75;4.03;;;;;;;3.99;75.69;93222.00;5092220;28;20035;-47
2021/01/11 09:43:41;;;;;;;10.23;5.28;;;;;;;3.88;75.62;93228.31;5091959;28;20081;-48
2021/01/11 09:46:08;;;;;;;5.60;4.10;;;;;;;3.95;75.05;93246.13;5091562;28;20043;-44
2021/01/11 09:48:33;;;;;;;2.20;2.00;;;;;;;3.96;73.98;93233.94;5091384;28;20020;-45
2021/01/11 09:50:59;;;;;;;4.68;2.25;;;;;;;3.80;73.99;93236.31;5091844;28;20035;-45
2021/01/11 09:53:24;;;;;;;4.28;2.38;;;;;;;3.65;73.55;93235.97;5091882;28;20093;-44
2021/01/11 09:55:49;;;;;;;1.83;1.60;;;;;;;3.43;74.59;93257.97;5090737;28;20023;-48
2021/01/11 09:58:15;;;;;;;3.10;2.75;;;;;;;3.50;75.54;93251.97;5091733;28;20107;-45
2021/01/11 10:00:41;;;;;;;27.70;16.10;;;;;;;3.55;75.21;93264.09;5091782;28;20016;-48
2021/01/11 10:03:06;;;;;;;21.70;13.88;;;;;;;3.54;74.88;93259.88;5091944;28;20535;-45
2021/01/11 10:05:32;;;;;;;7.20;4.80;;;;;;;3.53;74.21;93255.66;5091923;28;20027;-45
2021/01/11 10:07:57;;;;;;;4.65;3.33;;;;;;;3.40;74.89;93231.69;5092028;28;20484;-49
2021/01/11 10:10:23;;;;;;;10.70;5.90;;;;;;;3.32;74.67;93208.94;5091793;28;20028;-47
2021/01/11 10:12:48;;;;;;;9.70;5.97;;;;;;;3.45;74.46;93236.38;5091731;28;20020;-49
2021/01/11 10:15:14;;;;;;;2.70;2.10;;;;;;;3.42;74.69;93244.84;5091783;28;20049;-48
2021/01/11 10:17:39;;;;;;;3.00;2.08;;;;;;;3.44;74.56;93215.78;5091731;28;20023;-48
2021/01/11 10:20:07;;;;;;;3.60;2.50;;;;;;;3.51;74.36;93214.50;5091548;28;20054;-48
2021/01/11 10:22:33;;;;;;;3.40;2.37;;;;;;;3.41;74.09;93213.31;5091512;28;20024;-49
2021/01/11 10:25:00;;;;;;;2.35;1.73;;;;;;;3.22;75.49;93198.84;5090253;28;20024;-48
2021/01/11 10:27:25;;;;;;;7.22;3.63;;;;;;;3.08;76.16;93212.31;5091552;28;20102;-48
2021/01/11 10:29:51;;;;;;;5.13;3.50;;;;;;;3.05;77.00;93198.97;5091539;28;20127;-43
2021/01/11 10:32:16;;;;;;;2.60;1.90;;;;;;;3.36;75.48;93192.28;5091442;28;20097;-48
2021/01/11 10:34:42;;;;;;;3.45;2.25;;;;;;;3.31;75.75;93210.19;5091172;28;20044;-47
2021/01/11 10:37:07;;;;;;;7.25;3.97;;;;;;;3.16;77.54;93201.63;5091316;28;20036;-47
2021/01/11 10:39:34;;;;;;;6.00;3.50;;;;;;;3.71;76.47;93217.53;5091200;28;20089;-48
2021/01/11 10:41:59;;;;;;;7.88;3.90;;;;;;;3.89;75.80;93218.13;5091198;28;20064;-47
2021/01/11 10:44:25;;;;;;;7.43;3.22;;;;;;;3.76;74.35;93241.34;5088000;28;20052;-46
2021/01/11 10:46:51;;;;;;;7.00;3.35;;;;;;;3.61;74.11;93221.84;5070831;28;20036;-46
2021/01/11 10:49:17;;;;;;;3.88;3.15;;;;;;;3.58;74.09;93224.84;5070903;28;20111;-48
2021/01/11 10:51:43;;;;;;;3.72;2.45;;;;;;;3.58;75.13;93211.19;5070668;28;20108;-49
2021/01/11 10:54:08;;;;;;;1.23;1.10;;;;;;;3.06;75.97;93194.97;5070817;28;20119;-49
2021/01/11 10:56:34;;;;;;;1.27;1.00;;;;;;;3.18;76.81;93182.00;5070865;28;20035;-47
2021/01/11 10:58:59;;;;;;;1.17;1.00;;;;;;;3.46;75.84;93182.53;5070517;28;20043;-47
2021/01/11 11:01:25;;;;;;;0.80;0.80;;;;;;;3.69;75.59;93192.00;5070759;28;20024;-46
2021/01/11 11:03:50;;;;;;;1.42;0.98;;;;;;;3.84;75.26;93197.81;5070705;28;20077;-47
2021/01/11 11:06:21;;;;;;;13.18;6.25;;;;;;;3.89;75.49;93205.22;5070639;28;20032;-44
2021/01/11 11:08:46;;;;;;;9.00;4.00;;;;;;;3.93;75.24;93194.75;5070965;28;20415;-49
2021/01/11 11:11:12;;;;;;;3.60;1.92;;;;;;;3.86;74.08;93178.91;5070984;28;20028;-48
2021/01/11 11:13:41;;;;;;;1.20;1.10;;;;;;;3.82;73.85;93162.06;5070657;28;20452;-48
2021/01/11 11:16:08;;;;;;;2.90;2.17;;;;;;;4.01;74.51;93160.13;5070617;28;20147;-48
2021/01/11 11:18:38;;;;;;;4.72;2.35;;;;;;;4.01;73.91;93159.38;5070569;28;20036;-48
2021/01/11 11:21:05;;;;;;;3.60;2.35;;;;;;;3.76;74.29;93162.16;5070633;28;20401;-45
2021/01/11 11:23:30;;;;;;;4.90;3.08;;;;;;;3.49;73.61;93152.22;5070718;28;20440;-47
2021/01/11 11:25:56;;;;;;;10.05;5.32;;;;;;;3.58;74.99;93181.16;5070477;28;20036;-47
2021/01/11 11:28:22;;;;;;;9.52;5.00;;;;;;;3.33;76.30;93209.66;5070642;28;20029;-45
2021/01/11 11:30:47;;;;;;;11.70;6.22;;;;;;;3.27;76.62;93201.50;5070280;28;20481;-46
2021/01/11 11:33:12;;;;;;;3.08;2.35;;;;;;;3.37;75.64;93223.78;5069026;28;20021;-47
2021/01/11 11:35:41;;;;;;;6.00;3.63;;;;;;;3.26;75.66;93240.22;5070261;28;20032;-46
2021/01/11 11:38:08;;;;;;;1.70;1.60;;;;;;;3.10;75.22;93222.72;5070416;28;20493;-46
2021/01/11 11:40:34;;;;;;;0.75;0.75;;;;;;;3.10;74.73;93206.34;5070773;28;20032;-47
2021/01/11 11:43:00;;;;;;;1.73;1.63;;;;;;;3.03;75.90;93188.53;5070371;28;20032;-47
2021/01/11 11:45:25;;;;;;;2.30;1.40;;;;;;;3.23;76.06;93189.41;5070312;28;20028;-48
2021/01/11 11:47:50;;;;;;;4.70;3.72;;;;;;;3.29;76.31;93193.56;5070389;28;20813;-47
2021/01/11 11:50:16;;;;;;;8.75;4.13;;;;;;;3.36;76.08;93186.81;5070104;28;20024;-46
2021/01/11 11:52:42;;;;;;;5.32;2.90;;;;;;;3.52;75.98;93200.34;5070509;28;20043;-46
2021/01/11 11:55:10;;;;;;;5.10;3.92;;;;;;;3.42;76.14;93209.34;5070372;28;20464;-46
2021/01/11 11:57:39;;;;;;;4.15;2.55;;;;;;;3.16;75.89;93198.16;5070098;28;20032;-45